SondeTracker

Meteorological Radiosondes Database

Operations

Sounding was ended - last measurement: 2022-12-06 13:23:12z

MAP
About Radiosonde

Number: D22043986 (22043986)

Launch Site: Riverton [WY] (US)

Type: DFM17

AUX: NO

Frequency: 400.811 MHz

Max Speed: 183 km/h at 12355 m

Average Speed: 98.01 km/h

Max Altitude: 33736 m

Average Ascent Speed: 5.05 m/s

Average Descent Speed: 12.68 m/s

Status: UNKNOWN

Status Changes
Launch Site Type AUX Frequency Status Finder Landing Point Description Changes made by
APRS Statistics

Received Frames: 193

First Frame [UTC]: 2022-12-06 11:09:00z

Last Frame [UTC]: 2022-12-06 13:23:12z

Receivers: KI7YRV

Flight Time: 02:14:12 h

Distance From First Measurement: 181.60 km

Nearest City: Casper [WY] (US) [15.67 km]

Nearest Hunter: [0.00 km]

Ground Altitude: 1636 m

Distance from QTH: 0.00 km

APRS Data
Receiver Number Date/Time [UTC] φ λ Course [°] Speed [km/h] Altitude [m] Description
KI7YRVD220439862022-12-06 13:23:1242.9682-106.2357914811052Clb=-6.7m/s t=-56.0C h=-1.0% p=-1.0hPa 400.811 MHz Type=DFM17 ser=22043986 Radiosonde
KI7YRVD220439862022-12-06 13:22:3142.9678-106.2387814611087Clb=-7.0m/s t=-56.0C h=-1.0% p=-1.0hPa 400.811 MHz Type=DFM17 ser=22043986 Radiosonde
KI7YRVD220439862022-12-06 13:21:5042.9657-106.2517814811290Clb=-6.9m/s t=-55.4C h=-1.0% p=-1.0hPa 400.811 MHz Type=DFM17 ser=22043986 Radiosonde
KI7YRVD220439862022-12-06 13:21:1342.9632-106.2677815911527Clb=-7.6m/s t=-55.2C h=-1.0% p=-1.0hPa 400.811 MHz Type=DFM17 ser=22043986 Radiosonde
KI7YRVD220439862022-12-06 13:20:3542.961-106.2848116111797Clb=-8.8m/s t=-54.4C h=-1.0% p=-1.0hPa 400.811 MHz Type=DFM17 ser=22043986 Radiosonde
KI7YRVD220439862022-12-06 13:19:4642.9589-106.3017716512094Clb=-9.4m/s t=-53.1C h=-1.0% p=-1.0hPa 400.811 MHz Type=DFM17 ser=22043986 Radiosonde
KI7YRVD220439862022-12-06 13:19:0542.9563-106.3177715612393Clb=-10.0m/s t=-54.1C h=-1.0% p=-1.0hPa 400.811 MHz Type=DFM17 ser=22043986 Radiosonde
KI7YRVD220439862022-12-06 13:18:2442.9535-106.3347816912711Clb=-10.3m/s t=-55.8C h=-1.0% p=-1.0hPa 400.811 MHz Type=DFM17 ser=22043986 Radiosonde
KI7YRVD220439862022-12-06 13:17:4442.9516-106.358315213026Clb=-9.5m/s t=-55.5C h=-1.0% p=-1.0hPa 400.811 MHz Type=DFM17 ser=22043986 Radiosonde
KI7YRVD220439862022-12-06 13:16:5742.9502-106.3678416313329Clb=-9.7m/s t=-55.8C h=-1.0% p=-1.0hPa 400.811 MHz Type=DFM17 ser=22043986 Radiosonde
KI7YRVD220439862022-12-06 13:16:1942.9486-106.3858315713637Clb=-8.9m/s t=-56.0C h=-1.0% p=-1.0hPa 400.811 MHz Type=DFM17 ser=22043986 Radiosonde
KI7YRVD220439862022-12-06 13:15:4042.9471-106.48115913926Clb=-9.6m/s t=-57.2C h=-1.0% p=-1.0hPa 400.811 MHz Type=DFM17 ser=22043986 Radiosonde
KI7YRVD220439862022-12-06 13:14:5442.9458-106.4168514614237Clb=-10.2m/s t=-57.0C h=-1.0% p=-1.0hPa 400.811 MHz Type=DFM17 ser=22043986 Radiosonde
KI7YRVD220439862022-12-06 13:14:1542.9447-106.4318414314573Clb=-11.3m/s t=-57.3C h=-1.0% p=-1.0hPa 400.811 MHz Type=DFM17 ser=22043986 Radiosonde
KI7YRVD220439862022-12-06 13:13:3342.9434-106.4467613314939Clb=-12.3m/s t=-57.4C h=-1.0% p=-1.0hPa 400.811 MHz Type=DFM17 ser=22043986 Radiosonde
KI7YRVD220439862022-12-06 13:12:4642.9405-106.468013515355Clb=-13.1m/s t=-58.7C h=-1.0% p=-1.0hPa 400.811 MHz Type=DFM17 ser=22043986 Radiosonde
KI7YRVD220439862022-12-06 13:12:0542.9395-106.4738612015753Clb=-13.0m/s t=-60.0C h=-1.0% p=-1.0hPa 400.811 MHz Type=DFM17 ser=22043986 Radiosonde
KI7YRVD220439862022-12-06 13:11:5742.9379-106.4867612816165Clb=-13.2m/s t=-61.5C h=-1.0% p=-1.0hPa 400.811 MHz Type=DFM17 ser=22043986 Radiosonde
KI7YRVD220439862022-12-06 13:11:5042.9362-106.4998012616585Clb=-13.3m/s t=-62.5C h=-1.0% p=-1.0hPa 400.811 MHz Type=DFM17 ser=22043986 Radiosonde
KI7YRVD220439862022-12-06 13:11:4342.9346-106.5117111317008Clb=-13.7m/s t=-62.0C h=-1.0% p=-1.0hPa 400.811 MHz Type=DFM17 ser=22043986 Radiosonde
KI7YRVD220439862022-12-06 13:11:3842.932-106.5247913017462Clb=-14.5m/s t=-62.4C h=-1.0% p=-1.0hPa 400.811 MHz Type=DFM17 ser=22043986 Radiosonde
KI7YRVD220439862022-12-06 13:11:3642.9306-106.5379012417912Clb=-15.4m/s t=-63.1C h=-1.0% p=-1.0hPa 400.811 MHz Type=DFM17 ser=22043986 Radiosonde
KI7YRVD220439862022-12-06 13:11:1842.9308-106.558812418411Clb=-15.6m/s t=-65.6C h=-1.0% p=-1.0hPa 400.811 MHz Type=DFM17 ser=22043986 Radiosonde
KI7YRVD220439862022-12-06 13:10:3642.9309-106.5649012618904Clb=-15.4m/s t=-64.3C h=-1.0% p=-1.0hPa 400.811 MHz Type=DFM17 ser=22043986 Radiosonde
KI7YRVD220439862022-12-06 13:09:4442.9301-106.5768512419399Clb=-15.6m/s t=-60.7C h=-1.0% p=-1.0hPa 400.811 MHz Type=DFM17 ser=22043986 Radiosonde
KI7YRVD220439862022-12-06 13:08:4942.93-106.5899110619926Clb=-16.4m/s t=-59.2C h=-1.0% p=-1.0hPa 400.811 MHz Type=DFM17 ser=22043986 Radiosonde
KI7YRVD220439862022-12-06 13:07:5242.9306-106.5991049320439Clb=-17.5m/s t=-57.8C h=-1.0% p=-1.0hPa 400.811 MHz Type=DFM17 ser=22043986 Radiosonde
KI7YRVD220439862022-12-06 13:06:5742.9323-106.6081019621036Clb=-19.8m/s t=-59.9C h=-1.0% p=-1.0hPa 400.811 MHz Type=DFM17 ser=22043986 Radiosonde
KI7YRVD220439862022-12-06 13:06:1142.9343-106.6181036321679Clb=-21.1m/s t=-57.2C h=-1.0% p=-1.0hPa 400.811 MHz Type=DFM17 ser=22043986 Radiosonde
KI7YRVD220439862022-12-06 13:05:2442.9334-106.623795922329Clb=-19.9m/s t=-57.0C h=-1.0% p=-1.0hPa 400.811 MHz Type=DFM17 ser=22043986 Radiosonde
KI7YRVD220439862022-12-06 13:04:3542.9338-106.631195622932Clb=-19.9m/s t=-57.5C h=-1.0% p=-1.0hPa 400.811 MHz Type=DFM17 ser=22043986 Radiosonde
KI7YRVD220439862022-12-06 13:03:3642.936-106.6341214423598Clb=-22.4m/s t=-61.3C h=-1.0% p=-1.0hPa 400.811 MHz Type=DFM17 ser=22043986 Radiosonde
KI7YRVD220439862022-12-06 13:02:5142.9376-106.6411098724292Clb=-22.3m/s t=-60.2C h=-1.0% p=-1.0hPa 400.811 MHz Type=DFM17 ser=22043986 Radiosonde
KI7YRVD220439862022-12-06 13:02:0142.9395-106.6491098025027Clb=-25.3m/s t=-58.4C h=-1.0% p=-1.0hPa 400.811 MHz Type=DFM17 ser=22043986 Radiosonde
KI7YRVD220439862022-12-06 13:01:1442.942-106.6541174125857Clb=-27.9m/s t=-57.8C h=-1.0% p=-1.0hPa 400.811 MHz Type=DFM17 ser=22043986 Radiosonde
KI7YRVD220439862022-12-06 13:00:1642.9446-106.661357026784Clb=-29.3m/s t=-58.7C h=-1.0% p=-1.0hPa 400.811 MHz Type=DFM17 ser=22043986 Radiosonde
KI7YRVD220439862022-12-06 12:59:0642.9482-106.6661217827742Clb=-32.6m/s t=-61.3C h=-1.0% p=-1.0hPa 400.811 MHz Type=DFM17 ser=22043986 Radiosonde
KI7YRVD220439862022-12-06 12:58:0242.9517-106.67511210428790Clb=-34.8m/s t=-56.6C h=-1.0% p=-1.0hPa 400.811 MHz Type=DFM17 ser=22043986 Radiosonde
KI7YRVD220439862022-12-06 12:57:0142.9525-106.681926529860Clb=-36.2m/s t=-59.0C h=-1.0% p=-1.0hPa 400.811 MHz Type=DFM17 ser=22043986 Radiosonde
KI7YRVD220439862022-12-06 12:56:0842.9531-106.6929913131067Clb=-39.5m/s t=-60.4C h=-1.0% p=-1.0hPa 400.811 MHz Type=DFM17 ser=22043986 Radiosonde
KI7YRVD220439862022-12-06 12:55:1242.9548-106.70610013132064Clb=-31.8m/s t=-57.6C h=-1.0% p=-1.0hPa 400.811 MHz Type=DFM17 ser=22043986 Radiosonde
KI7YRVD220439862022-12-06 12:54:1742.9579-106.7239612032976Clb=-29.8m/s t=-55.7C h=-1.0% p=-1.0hPa 400.811 MHz Type=DFM17 ser=22043986 Radiosonde
KI7YRVD220439862022-12-06 12:53:2342.959-106.73710515633736Clb=7.8m/s t=-48.9C h=-1.0% p=-1.0hPa 400.811 MHz Type=DFM17 ser=22043986 Radiosonde
KI7YRVD220439862022-12-06 12:52:2342.9599-106.7549117433479Clb=6.8m/s t=-48.5C h=-1.0% p=-1.0hPa 400.811 MHz Type=DFM17 ser=22043986 Radiosonde
KI7YRVD220439862022-12-06 12:51:1942.9608-106.779915633275Clb=5.7m/s t=-49.1C h=-1.0% p=-1.0hPa 400.811 MHz Type=DFM17 ser=22043986 Radiosonde
KI7YRVD220439862022-12-06 12:50:1942.9616-106.7889317233151Clb=3.3m/s t=-52.6C h=-1.0% p=-1.0hPa 400.811 MHz Type=DFM17 ser=22043986 Radiosonde
KI7YRVD220439862022-12-06 12:49:1542.9625-106.80410415633061Clb=2.9m/s t=-58.1C h=-1.0% p=-1.0hPa 400.811 MHz Type=DFM17 ser=22043986 Radiosonde
KI7YRVD220439862022-12-06 12:48:1042.9651-106.82110015932935Clb=4.9m/s t=-59.5C h=-1.0% p=-1.0hPa 400.811 MHz Type=DFM17 ser=22043986 Radiosonde
KI7YRVD220439862022-12-06 12:47:0442.9687-106.83710716532732Clb=7.6m/s t=-58.8C h=-1.0% p=-1.0hPa 400.811 MHz Type=DFM17 ser=22043986 Radiosonde
KI7YRVD220439862022-12-06 12:46:0842.9736-106.85411616732424Clb=9.5m/s t=-57.8C h=-1.0% p=-1.0hPa 400.811 MHz Type=DFM17 ser=22043986 Radiosonde
KI7YRVD220439862022-12-06 12:45:0342.9777-106.8710416132069Clb=12.0m/s t=-55.2C h=-1.0% p=-1.0hPa 400.811 MHz Type=DFM17 ser=22043986 Radiosonde
KI7YRVD220439862022-12-06 12:44:0042.9802-106.88510613931746Clb=7.7m/s t=-54.4C h=-1.0% p=-1.0hPa 400.811 MHz Type=DFM17 ser=22043986 Radiosonde
KI7YRVD220439862022-12-06 12:43:5242.9821-106.90110813131489Clb=3.7m/s t=-55.6C h=-1.0% p=-1.0hPa 400.811 MHz Type=DFM17 ser=22043986 Radiosonde
KI7YRVD220439862022-12-06 12:43:4942.9833-106.91410112831310Clb=3.2m/s t=-55.1C h=-1.0% p=-1.0hPa 400.811 MHz Type=DFM17 ser=22043986 Radiosonde
KI7YRVD220439862022-12-06 12:43:4342.9835-106.92710112031176Clb=5.6m/s t=-56.3C h=-1.0% p=-1.0hPa 400.811 MHz Type=DFM17 ser=22043986 Radiosonde
KI7YRVD220439862022-12-06 12:43:2842.9833-106.9399410731058Clb=6.2m/s t=-58.5C h=-1.0% p=-1.0hPa 400.811 MHz Type=DFM17 ser=22043986 Radiosonde
KI7YRVD220439862022-12-06 12:43:0242.9841-106.95110210730910Clb=9.7m/s t=-59.0C h=-1.0% p=-1.0hPa 400.811 MHz Type=DFM17 ser=22043986 Radiosonde
KI7YRVD220439862022-12-06 12:42:0942.9845-106.9638811130744Clb=4.8m/s t=-58.3C h=-1.0% p=-1.0hPa 400.811 MHz Type=DFM17 ser=22043986 Radiosonde
KI7YRVD220439862022-12-06 12:41:5842.985-106.974728930533Clb=8.0m/s t=-59.6C h=-1.0% p=-1.0hPa 400.811 MHz Type=DFM17 ser=22043986 Radiosonde
KI7YRVD220439862022-12-06 12:41:5342.9845-106.983808730312Clb=8.3m/s t=-60.4C h=-1.0% p=-1.0hPa 400.811 MHz Type=DFM17 ser=22043986 Radiosonde
KI7YRVD220439862022-12-06 12:41:5142.9832-106.991655230090Clb=11.2m/s t=-59.7C h=-1.0% p=-1.0hPa 400.811 MHz Type=DFM17 ser=22043986 Radiosonde
KI7YRVD220439862022-12-06 12:41:4942.9823-106.997523329871Clb=7.4m/s t=-57.9C h=-1.0% p=-1.0hPa 400.811 MHz Type=DFM17 ser=22043986 Radiosonde
KI7YRVD220439862022-12-06 12:41:4642.9816-107.002845429684Clb=6.5m/s t=-56.2C h=-1.0% p=-1.0hPa 400.811 MHz Type=DFM17 ser=22043986 Radiosonde
KI7YRVD220439862022-12-06 12:41:3542.981-107.008866929520Clb=3.3m/s t=-54.9C h=-1.0% p=-1.0hPa 400.811 MHz Type=DFM17 ser=22043986 Radiosonde
KI7YRVD220439862022-12-06 12:41:0142.9808-107.013705629358Clb=4.6m/s t=-53.7C h=-1.0% p=-1.0hPa 400.811 MHz Type=DFM17 ser=22043986 Radiosonde
KI7YRVD220439862022-12-06 12:40:0142.9816-107.0181194629189Clb=3.5m/s t=-52.9C h=-1.0% p=-1.0hPa 400.811 MHz Type=DFM17 ser=22043986 Radiosonde
KI7YRVD220439862022-12-06 12:38:5342.9839-107.0231426929016Clb=5.1m/s t=-55.3C h=-1.0% p=-1.0hPa 400.811 MHz Type=DFM17 ser=22043986 Radiosonde
KI7YRVD220439862022-12-06 12:37:4342.9875-107.031328328911Clb=2.4m/s t=-56.6C h=-1.0% p=-1.0hPa 400.811 MHz Type=DFM17 ser=22043986 Radiosonde
KI7YRVD220439862022-12-06 12:36:3242.991-107.03912311728862Clb=3.4m/s t=-59.6C h=-1.0% p=-1.0hPa 400.811 MHz Type=DFM17 ser=22043986 Radiosonde
KI7YRVD220439862022-12-06 12:35:2142.9952-107.0491157628788Clb=2.4m/s t=-61.0C h=-1.0% p=-1.0hPa 400.811 MHz Type=DFM17 ser=22043986 Radiosonde
KI7YRVD220439862022-12-06 12:33:5642.9983-107.0561065628637Clb=7.3m/s t=-60.6C h=-1.0% p=-1.0hPa 400.811 MHz Type=DFM17 ser=22043986 Radiosonde
KI7YRVD220439862022-12-06 12:31:5243.0466-107.1891208924708Clb=8.0m/s t=-57.9C h=-1.0% p=-1.0hPa 400.811 MHz Type=DFM17 ser=22043986 Radiosonde
KI7YRVD220439862022-12-06 12:30:3943.0498-107.1961219624522Clb=7.0m/s t=-58.9C h=-1.0% p=-1.0hPa 400.811 MHz Type=DFM17 ser=22043986 Radiosonde
KI7YRVD220439862022-12-06 12:29:2643.0537-107.2061187424347Clb=4.8m/s t=-59.1C h=-1.0% p=-1.0hPa 400.811 MHz Type=DFM17 ser=22043986 Radiosonde
KI7YRVD220439862022-12-06 12:28:1543.0571-107.2161198124157Clb=3.5m/s t=-60.3C h=-1.0% p=-1.0hPa 400.811 MHz Type=DFM17 ser=22043986 Radiosonde
KI7YRVD220439862022-12-06 12:27:0743.0601-107.2251287623972Clb=4.8m/s t=-60.1C h=-1.0% p=-1.0hPa 400.811 MHz Type=DFM17 ser=22043986 Radiosonde
KI7YRVD220439862022-12-06 12:26:0243.0625-107.2321028023803Clb=4.0m/s t=-61.4C h=-1.0% p=-1.0hPa 400.811 MHz Type=DFM17 ser=22043986 Radiosonde
KI7YRVD220439862022-12-06 12:24:4643.0635-107.241095723616Clb=9.5m/s t=-61.2C h=-1.0% p=-1.0hPa 400.811 MHz Type=DFM17 ser=22043986 Radiosonde
KI7YRVD220439862022-12-06 12:23:3443.065-107.2471117423436Clb=-0.2m/s t=-60.3C h=-1.0% p=-1.0hPa 400.811 MHz Type=DFM17 ser=22043986 Radiosonde
KI7YRVD220439862022-12-06 12:22:1843.0665-107.2531088523286Clb=5.2m/s t=-60.3C h=-1.0% p=-1.0hPa 400.811 MHz Type=DFM17 ser=22043986 Radiosonde
KI7YRVD220439862022-12-06 12:21:0343.0678-107.2591164123087Clb=-3.1m/s t=-59.7C h=-1.0% p=-1.0hPa 400.811 MHz Type=DFM17 ser=22043986 Radiosonde
KI7YRVD220439862022-12-06 12:19:1343.068-107.2661149422864Clb=3.9m/s t=-58.0C h=-1.0% p=-1.0hPa 400.811 MHz Type=DFM17 ser=22043986 Radiosonde
KI7YRVD220439862022-12-06 12:17:5543.0674-107.272777222636Clb=9.1m/s t=-58.1C h=-1.0% p=-1.0hPa 400.811 MHz Type=DFM17 ser=22043986 Radiosonde
KI7YRVD220439862022-12-06 12:16:4843.0676-107.2781195022383Clb=7.6m/s t=-56.7C h=-1.0% p=-1.0hPa 400.811 MHz Type=DFM17 ser=22043986 Radiosonde
KI7YRVD220439862022-12-06 12:15:5943.0682-107.284935222134Clb=12.7m/s t=-57.4C h=-1.0% p=-1.0hPa 400.811 MHz Type=DFM17 ser=22043986 Radiosonde
KI7YRVD220439862022-12-06 12:15:5743.0694-107.291056921881Clb=7.5m/s t=-59.0C h=-1.0% p=-1.0hPa 400.811 MHz Type=DFM17 ser=22043986 Radiosonde
KI7YRVD220439862022-12-06 12:15:5443.0719-107.29911012821614Clb=10.5m/s t=-58.6C h=-1.0% p=-1.0hPa 400.811 MHz Type=DFM17 ser=22043986 Radiosonde
KI7YRVD220439862022-12-06 12:15:5043.0745-107.309999621409Clb=11.0m/s t=-59.4C h=-1.0% p=-1.0hPa 400.811 MHz Type=DFM17 ser=22043986 Radiosonde
KI7YRVD220439862022-12-06 12:15:4743.0759-107.31910812621267Clb=6.2m/s t=-60.1C h=-1.0% p=-1.0hPa 400.811 MHz Type=DFM17 ser=22043986 Radiosonde
KI7YRVD220439862022-12-06 12:15:3543.0775-107.3281056321129Clb=-2.4m/s t=-61.0C h=-1.0% p=-1.0hPa 400.811 MHz Type=DFM17 ser=22043986 Radiosonde
KI7YRVD220439862022-12-06 12:15:1043.079-107.336937620979Clb=7.2m/s t=-60.6C h=-1.0% p=-1.0hPa 400.811 MHz Type=DFM17 ser=22043986 Radiosonde
KI7YRVD220439862022-12-06 12:14:2143.081-107.3441129320783Clb=3.8m/s t=-59.5C h=-1.0% p=-1.0hPa 400.811 MHz Type=DFM17 ser=22043986 Radiosonde
KI7YRVD220439862022-12-06 12:13:1643.0834-107.3521177220604Clb=8.9m/s t=-58.6C h=-1.0% p=-1.0hPa 400.811 MHz Type=DFM17 ser=22043986 Radiosonde
KI7YRVD220439862022-12-06 12:12:0343.086-107.3591337620429Clb=-6.7m/s t=-57.4C h=-1.0% p=-1.0hPa 400.811 MHz Type=DFM17 ser=22043986 Radiosonde
KI7YRVD220439862022-12-06 12:10:5143.0884-107.3681068020269Clb=6.6m/s t=-59.1C h=-1.0% p=-1.0hPa 400.811 MHz Type=DFM17 ser=22043986 Radiosonde
KI7YRVD220439862022-12-06 12:09:0943.0703-107.5738311517152Clb=5.2m/s t=-61.2C h=-1.0% p=-1.0hPa 400.811 MHz Type=DFM17 ser=22043986 Radiosonde
KI7YRVD220439862022-12-06 12:07:4843.0694-107.5857212817018Clb=4.6m/s t=-61.0C h=-1.0% p=-1.0hPa 400.811 MHz Type=DFM17 ser=22043986 Radiosonde
KI7YRVD220439862022-12-06 12:06:3743.0689-107.5948213116885Clb=7.1m/s t=-61.7C h=-1.0% p=-1.0hPa 400.811 MHz Type=DFM17 ser=22043986 Radiosonde
KI7YRVD220439862022-12-06 12:05:2243.0688-107.6051017816726Clb=5.8m/s t=-62.0C h=-1.0% p=-1.0hPa 400.811 MHz Type=DFM17 ser=22043986 Radiosonde
KI7YRVD220439862022-12-06 12:04:0243.0689-107.616969116573Clb=-0.9m/s t=-61.5C h=-1.0% p=-1.0hPa 400.811 MHz Type=DFM17 ser=22043986 Radiosonde
KI7YRVD220439862022-12-06 12:02:5143.0686-107.6278410016407Clb=5.8m/s t=-60.3C h=-1.0% p=-1.0hPa 400.811 MHz Type=DFM17 ser=22043986 Radiosonde
KI7YRVD220439862022-12-06 12:01:4443.0681-107.6388314116228Clb=6.5m/s t=-59.1C h=-1.0% p=-1.0hPa 400.811 MHz Type=DFM17 ser=22043986 Radiosonde
KI7YRVD220439862022-12-06 12:00:4043.0674-107.658511716054Clb=7.7m/s t=-57.8C h=-1.0% p=-1.0hPa 400.811 MHz Type=DFM17 ser=22043986 Radiosonde
KI7YRVD220439862022-12-06 11:59:1743.0667-107.661789415868Clb=9.3m/s t=-57.3C h=-1.0% p=-1.0hPa 400.811 MHz Type=DFM17 ser=22043986 Radiosonde
KI7YRVD220439862022-12-06 11:57:5443.0662-107.6727811315687Clb=4.3m/s t=-56.9C h=-1.0% p=-1.0hPa 400.811 MHz Type=DFM17 ser=22043986 Radiosonde
KI7YRVD220439862022-12-06 11:56:4643.0659-107.6849210415509Clb=9.7m/s t=-56.4C h=-1.0% p=-1.0hPa 400.811 MHz Type=DFM17 ser=22043986 Radiosonde
KI7YRVD220439862022-12-06 11:55:4043.0667-107.6979311915326Clb=9.5m/s t=-56.3C h=-1.0% p=-1.0hPa 400.811 MHz Type=DFM17 ser=22043986 Radiosonde
KI7YRVD220439862022-12-06 11:54:2443.0672-107.7099413715150Clb=9.6m/s t=-56.0C h=-1.0% p=-1.0hPa 400.811 MHz Type=DFM17 ser=22043986 Radiosonde
KI7YRVD220439862022-12-06 11:53:0843.0676-107.7237612614976Clb=2.7m/s t=-56.1C h=-1.0% p=-1.0hPa 400.811 MHz Type=DFM17 ser=22043986 Radiosonde
KI7YRVD220439862022-12-06 11:51:5643.0675-107.7379612814817Clb=1.8m/s t=-56.6C h=-1.0% p=-1.0hPa 400.811 MHz Type=DFM17 ser=22043986 Radiosonde
KI7YRVD220439862022-12-06 11:51:3543.0672-107.7518913514667Clb=3.9m/s t=-56.2C h=-1.0% p=-1.0hPa 400.811 MHz Type=DFM17 ser=22043986 Radiosonde
KI7YRVD220439862022-12-06 11:50:5443.067-107.7678712414521Clb=8.3m/s t=-57.0C h=-1.0% p=-1.0hPa 400.811 MHz Type=DFM17 ser=22043986 Radiosonde
KI7YRVD220439862022-12-06 11:50:3243.0666-107.78110213014388Clb=3.1m/s t=-57.2C h=-1.0% p=-1.0hPa 400.811 MHz Type=DFM17 ser=22043986 Radiosonde
KI7YRVD220439862022-12-06 11:50:0043.0663-107.7977514114245Clb=7.6m/s t=-57.3C h=-1.0% p=-1.0hPa 400.811 MHz Type=DFM17 ser=22043986 Radiosonde
KI7YRVD220439862022-12-06 11:49:5343.0652-107.8128614314086Clb=8.4m/s t=-56.7C h=-1.0% p=-1.0hPa 400.811 MHz Type=DFM17 ser=22043986 Radiosonde
KI7YRVD220439862022-12-06 11:49:4343.0633-107.8287716313918Clb=3.5m/s t=-56.3C h=-1.0% p=-1.0hPa 400.811 MHz Type=DFM17 ser=22043986 Radiosonde
KI7YRVD220439862022-12-06 11:49:0743.0611-107.8438314613764Clb=2.8m/s t=-55.2C h=-1.0% p=-1.0hPa 400.811 MHz Type=DFM17 ser=22043986 Radiosonde
KI7YRVD220439862022-12-06 11:48:5143.0592-107.8597515713606Clb=0.2m/s t=-55.4C h=-1.0% p=-1.0hPa 400.811 MHz Type=DFM17 ser=22043986 Radiosonde
KI7YRVD220439862022-12-06 11:48:4943.0575-107.8759216313461Clb=5.8m/s t=-55.2C h=-1.0% p=-1.0hPa 400.811 MHz Type=DFM17 ser=22043986 Radiosonde
KI7YRVD220439862022-12-06 11:48:4543.056-107.8917317213322Clb=2.5m/s t=-54.7C h=-1.0% p=-1.0hPa 400.811 MHz Type=DFM17 ser=22043986 Radiosonde
KI7YRVD220439862022-12-06 11:48:4343.0542-107.9098414813187Clb=2.0m/s t=-54.7C h=-1.0% p=-1.0hPa 400.811 MHz Type=DFM17 ser=22043986 Radiosonde
KI7YRVD220439862022-12-06 11:48:4143.0522-107.9258716113059Clb=5.3m/s t=-54.8C h=-1.0% p=-1.0hPa 400.811 MHz Type=DFM17 ser=22043986 Radiosonde
KI7YRVD220439862022-12-06 11:48:3943.0499-107.9417415012920Clb=7.4m/s t=-54.2C h=-1.0% p=-1.0hPa 400.811 MHz Type=DFM17 ser=22043986 Radiosonde
KI7YRVD220439862022-12-06 11:48:3743.0484-107.9588814412781Clb=1.5m/s t=-54.3C h=-1.0% p=-1.0hPa 400.811 MHz Type=DFM17 ser=22043986 Radiosonde
KI7YRVD220439862022-12-06 11:48:1543.046-107.9747618112637Clb=1.2m/s t=-55.0C h=-1.0% p=-1.0hPa 400.811 MHz Type=DFM17 ser=22043986 Radiosonde
KI7YRVD220439862022-12-06 11:47:0843.0438-107.9918017012492Clb=9.8m/s t=-55.0C h=-1.0% p=-1.0hPa 400.811 MHz Type=DFM17 ser=22043986 Radiosonde
KI7YRVD220439862022-12-06 11:46:0843.0411-108.0077218312355Clb=4.0m/s t=-54.9C h=-1.0% p=-1.0hPa 400.811 MHz Type=DFM17 ser=22043986 Radiosonde
KI7YRVD220439862022-12-06 11:45:0843.0383-108.0237915412229Clb=3.8m/s t=-54.5C h=-1.0% p=-1.0hPa 400.811 MHz Type=DFM17 ser=22043986 Radiosonde
KI7YRVD220439862022-12-06 11:44:0443.0359-108.0397615612097Clb=5.9m/s t=-55.7C h=-1.0% p=-1.0hPa 400.811 MHz Type=DFM17 ser=22043986 Radiosonde
KI7YRVD220439862022-12-06 11:43:0543.0331-108.0558113311949Clb=2.1m/s t=-55.9C h=-1.0% p=-1.0hPa 400.811 MHz Type=DFM17 ser=22043986 Radiosonde
KI7YRVD220439862022-12-06 11:41:5943.0301-108.0728413511793Clb=4.3m/s t=-55.8C h=-1.0% p=-1.0hPa 400.811 MHz Type=DFM17 ser=22043986 Radiosonde
KI7YRVD220439862022-12-06 11:40:5843.028-108.0877814611634Clb=6.6m/s t=-55.4C h=-1.0% p=-1.0hPa 400.811 MHz Type=DFM17 ser=22043986 Radiosonde
KI7YRVD220439862022-12-06 11:40:0343.0259-108.1027314611475Clb=4.3m/s t=-55.3C h=-1.0% p=-1.0hPa 400.811 MHz Type=DFM17 ser=22043986 Radiosonde
KI7YRVD220439862022-12-06 11:39:3543.0242-108.1177415011332Clb=3.7m/s t=-55.9C h=-1.0% p=-1.0hPa 400.811 MHz Type=DFM17 ser=22043986 Radiosonde
KI7YRVD220439862022-12-06 11:39:0043.0224-108.1327515211190Clb=6.4m/s t=-56.4C h=-1.0% p=-1.0hPa 400.811 MHz Type=DFM17 ser=22043986 Radiosonde
KI7YRVD220439862022-12-06 11:38:2943.0205-108.1468512811048Clb=4.2m/s t=-56.6C h=-1.0% p=-1.0hPa 400.811 MHz Type=DFM17 ser=22043986 Radiosonde
KI7YRVD220439862022-12-06 11:37:5943.0191-108.1598714410918Clb=4.9m/s t=-56.7C h=-1.0% p=-1.0hPa 400.811 MHz Type=DFM17 ser=22043986 Radiosonde
KI7YRVD220439862022-12-06 11:37:2943.0173-108.1737913310771Clb=5.9m/s t=-57.2C h=-1.0% p=-1.0hPa 400.811 MHz Type=DFM17 ser=22043986 Radiosonde
KI7YRVD220439862022-12-06 11:36:5643.0154-108.1878112810616Clb=6.6m/s t=-56.1C h=-1.0% p=-1.0hPa 400.811 MHz Type=DFM17 ser=22043986 Radiosonde
KI7YRVD220439862022-12-06 11:36:2943.0134-108.27611310456Clb=6.3m/s t=-55.9C h=-1.0% p=-1.0hPa 400.811 MHz Type=DFM17 ser=22043986 Radiosonde
KI7YRVD220439862022-12-06 11:36:2743.0118-108.2128312410316Clb=1.9m/s t=-56.0C h=-1.0% p=-1.0hPa 400.811 MHz Type=DFM17 ser=22043986 Radiosonde
KI7YRVD220439862022-12-06 11:36:2543.0104-108.2248310910165Clb=4.2m/s t=-55.6C h=-1.0% p=-1.0hPa 400.811 MHz Type=DFM17 ser=22043986 Radiosonde
KI7YRVD220439862022-12-06 11:36:2243.0091-108.233716910022Clb=6.2m/s t=-55.9C h=-1.0% p=-1.0hPa 400.811 MHz Type=DFM17 ser=22043986 Radiosonde
KI7YRVD220439862022-12-06 11:36:1143.0079-108.24171579864Clb=6.1m/s t=-56.0C h=-1.0% p=-1.0hPa 400.811 MHz Type=DFM17 ser=22043986 Radiosonde
KI7YRVD220439862022-12-06 11:35:2143.0074-108.24768529731Clb=2.9m/s t=-56.5C h=-1.0% p=-1.0hPa 400.811 MHz Type=DFM17 ser=22043986 Radiosonde
KI7YRVD220439862022-12-06 11:34:2643.007-108.25271209601Clb=2.9m/s t=-56.3C h=-1.0% p=-1.0hPa 400.811 MHz Type=DFM17 ser=22043986 Radiosonde
KI7YRVD220439862022-12-06 11:33:2843.0066-108.25677379464Clb=5.6m/s t=-55.2C h=-1.0% p=-1.0hPa 400.811 MHz Type=DFM17 ser=22043986 Radiosonde
KI7YRVD220439862022-12-06 11:32:2743.006-108.2693509317Clb=5.4m/s t=-53.9C h=-1.0% p=-1.0hPa 400.811 MHz Type=DFM17 ser=22043986 Radiosonde
KI7YRVD220439862022-12-06 11:31:4543.0055-108.26461439155Clb=2.8m/s t=-52.5C h=-1.0% p=-1.0hPa 400.811 MHz Type=DFM17 ser=22043986 Radiosonde
KI7YRVD220439862022-12-06 11:31:1443.005-108.26884598999Clb=5.9m/s t=-51.5C h=-1.0% p=-1.0hPa 400.811 MHz Type=DFM17 ser=22043986 Radiosonde
KI7YRVD220439862022-12-06 11:31:1243.0052-108.27368378832Clb=2.5m/s t=-51.1C h=-1.0% p=-1.0hPa 400.811 MHz Type=DFM17 ser=22043986 Radiosonde
KI7YRVD220439862022-12-06 11:31:1043.0059-108.277112398682Clb=8.2m/s t=-49.7C h=-1.0% p=-1.0hPa 400.811 MHz Type=DFM17 ser=22043986 Radiosonde
KI7YRVD220439862022-12-06 11:30:4543.0066-108.282109548499Clb=3.2m/s t=-48.7C h=-1.0% p=-1.0hPa 400.811 MHz Type=DFM17 ser=22043986 Radiosonde
KI7YRVD220439862022-12-06 11:29:5543.0079-108.286124488359Clb=4.1m/s t=-47.8C h=-1.0% p=-1.0hPa 400.811 MHz Type=DFM17 ser=22043986 Radiosonde
KI7YRVD220439862022-12-06 11:29:0243.0098-108.289147448193Clb=2.5m/s t=-46.4C h=-1.0% p=-1.0hPa 400.811 MHz Type=DFM17 ser=22043986 Radiosonde
KI7YRVD220439862022-12-06 11:28:1243.012-108.293123488055Clb=5.5m/s t=-45.6C h=-1.0% p=-1.0hPa 400.811 MHz Type=DFM17 ser=22043986 Radiosonde
KI7YRVD220439862022-12-06 11:27:3743.0141-108.297104487909Clb=5.6m/s t=-44.5C h=-1.0% p=-1.0hPa 400.811 MHz Type=DFM17 ser=22043986 Radiosonde
KI7YRVD220439862022-12-06 11:27:0643.0158-108.301135447790Clb=2.1m/s t=-43.8C h=-1.0% p=-1.0hPa 400.811 MHz Type=DFM17 ser=22043986 Radiosonde
KI7YRVD220439862022-12-06 11:26:3543.0174-108.305117567680Clb=4.6m/s t=-42.8C h=-1.0% p=-1.0hPa 400.811 MHz Type=DFM17 ser=22043986 Radiosonde
KI7YRVD220439862022-12-06 11:26:1943.0192-108.309105417562Clb=4.4m/s t=-41.8C h=-1.0% p=-1.0hPa 400.811 MHz Type=DFM17 ser=22043986 Radiosonde
KI7YRVD220439862022-12-06 11:26:1443.021-108.313122617443Clb=4.6m/s t=-41.2C h=-1.0% p=-1.0hPa 400.811 MHz Type=DFM17 ser=22043986 Radiosonde
KI7YRVD220439862022-12-06 11:25:3343.0227-108.31673397313Clb=4.8m/s t=-40.1C h=-1.0% p=-1.0hPa 400.811 MHz Type=DFM17 ser=22043986 Radiosonde
KI7YRVD220439862022-12-06 11:24:4643.024-108.32102397178Clb=6.6m/s t=-39.2C h=-1.0% p=-1.0hPa 400.811 MHz Type=DFM17 ser=22043986 Radiosonde
KI7YRVD220439862022-12-06 11:24:0043.0255-108.32491397059Clb=5.7m/s t=-38.3C h=-1.0% p=-1.0hPa 400.811 MHz Type=DFM17 ser=22043986 Radiosonde
KI7YRVD220439862022-12-06 11:23:2943.027-108.327112246921Clb=3.6m/s t=-37.3C h=-1.0% p=-1.0hPa 400.811 MHz Type=DFM17 ser=22043986 Radiosonde
KI7YRVD220439862022-12-06 11:22:5843.0282-108.33100226765Clb=5.3m/s t=-36.2C h=-1.0% p=-1.0hPa 400.811 MHz Type=DFM17 ser=22043986 Radiosonde
KI7YRVD220439862022-12-06 11:22:2743.029-108.33480486568Clb=5.9m/s t=-34.4C h=-1.0% p=-1.0hPa 400.811 MHz Type=DFM17 ser=22043986 Radiosonde
KI7YRVD220439862022-12-06 11:21:5643.0298-108.338105636359Clb=2.7m/s t=-32.5C h=-1.0% p=-1.0hPa 400.811 MHz Type=DFM17 ser=22043986 Radiosonde
KI7YRVD220439862022-12-06 11:21:4743.0309-108.341118416180Clb=5.0m/s t=-31.5C h=-1.0% p=-1.0hPa 400.811 MHz Type=DFM17 ser=22043986 Radiosonde
KI7YRVD220439862022-12-06 11:21:0943.0323-108.34581316014Clb=5.9m/s t=-30.1C h=-1.0% p=-1.0hPa 400.811 MHz Type=DFM17 ser=22043986 Radiosonde
KI7YRVD220439862022-12-06 11:20:2943.0336-108.349108565856Clb=4.9m/s t=-28.9C h=-1.0% p=-1.0hPa 400.811 MHz Type=DFM17 ser=22043986 Radiosonde
KI7YRVD220439862022-12-06 11:19:5143.0342-108.35597695666Clb=2.4m/s t=-27.7C h=-1.0% p=-1.0hPa 400.811 MHz Type=DFM17 ser=22043986 Radiosonde
KI7YRVD220439862022-12-06 11:19:2043.0345-108.3676505536Clb=2.9m/s t=-26.7C h=-1.0% p=-1.0hPa 400.811 MHz Type=DFM17 ser=22043986 Radiosonde
KI7YRVD220439862022-12-06 11:18:4943.0348-108.36596305407Clb=6.1m/s t=-25.8C h=-1.0% p=-1.0hPa 400.811 MHz Type=DFM17 ser=22043986 Radiosonde
KI7YRVD220439862022-12-06 11:18:1843.0349-108.36979175274Clb=4.3m/s t=-24.7C h=-1.0% p=-1.0hPa 400.811 MHz Type=DFM17 ser=22043986 Radiosonde
KI7YRVD220439862022-12-06 11:17:4843.0355-108.372119355112Clb=5.3m/s t=-23.5C h=-1.0% p=-1.0hPa 400.811 MHz Type=DFM17 ser=22043986 Radiosonde
KI7YRVD220439862022-12-06 11:17:3143.0367-108.376103264931Clb=3.3m/s t=-22.0C h=-1.0% p=-1.0hPa 400.811 MHz Type=DFM17 ser=22043986 Radiosonde
KI7YRVD220439862022-12-06 11:16:5943.0375-108.38124464763Clb=5.8m/s t=-20.4C h=-1.0% p=-1.0hPa 400.811 MHz Type=DFM17 ser=22043986 Radiosonde
KI7YRVD220439862022-12-06 11:16:1743.0393-108.384128444584Clb=5.7m/s t=-19.0C h=-1.0% p=-1.0hPa 400.811 MHz Type=DFM17 ser=22043986 Radiosonde
KI7YRVD220439862022-12-06 11:15:4343.0411-108.389107614424Clb=6.0m/s t=-17.6C h=-1.0% p=-1.0hPa 400.811 MHz Type=DFM17 ser=22043986 Radiosonde
KI7YRVD220439862022-12-06 11:15:1243.0431-108.395106444246Clb=4.6m/s t=-16.3C h=-1.0% p=-1.0hPa 400.811 MHz Type=DFM17 ser=22043986 Radiosonde
KI7YRVD220439862022-12-06 11:14:4143.0455-108.403112914054Clb=6.6m/s t=-15.1C h=-1.0% p=-1.0hPa 400.811 MHz Type=DFM17 ser=22043986 Radiosonde
KI7YRVD220439862022-12-06 11:14:1043.0479-108.411151003893Clb=3.9m/s t=-14.4C h=-1.0% p=-1.0hPa 400.811 MHz Type=DFM17 ser=22043986 Radiosonde
KI7YRVD220439862022-12-06 11:13:3943.051-108.419123743714Clb=4.7m/s t=-13.8C h=-1.0% p=-1.0hPa 400.811 MHz Type=DFM17 ser=22043986 Radiosonde
KI7YRVD220439862022-12-06 11:13:0843.0538-108.426113693533Clb=6.6m/s t=-12.5C h=-1.0% p=-1.0hPa 400.811 MHz Type=DFM17 ser=22043986 Radiosonde
KI7YRVD220439862022-12-06 11:12:4343.056-108.433118613349Clb=8.5m/s t=-11.5C h=-1.0% p=-1.0hPa 400.811 MHz Type=DFM17 ser=22043986 Radiosonde
KI7YRVD220439862022-12-06 11:12:0643.0571-108.439118523149Clb=5.8m/s t=-10.5C h=-1.0% p=-1.0hPa 400.811 MHz Type=DFM17 ser=22043986 Radiosonde
KI7YRVD220439862022-12-06 11:11:3543.0576-108.444115302959Clb=7.4m/s t=-9.9C h=-1.0% p=-1.0hPa 400.811 MHz Type=DFM17 ser=22043986 Radiosonde
KI7YRVD220439862022-12-06 11:11:0443.0576-108.44872482769Clb=5.8m/s t=-8.4C h=-1.0% p=-1.0hPa 400.811 MHz Type=DFM17 ser=22043986 Radiosonde
KI7YRVD220439862022-12-06 11:10:3343.0574-108.452101372590Clb=5.0m/s t=-7.6C h=-1.0% p=-1.0hPa 400.811 MHz Type=DFM17 ser=22043986 Radiosonde
KI7YRVD220439862022-12-06 11:10:0243.0574-108.45573202437Clb=3.0m/s t=-7.0C h=-1.0% p=-1.0hPa 400.811 MHz Type=DFM17 ser=22043986 Radiosonde
KI7YRVD220439862022-12-06 11:09:3143.0584-108.46120692256Clb=4.9m/s t=-5.5C h=-1.0% p=-1.0hPa 400.811 MHz Type=DFM17 ser=22043986 Radiosonde
KI7YRVD220439862022-12-06 11:09:0043.0603-108.465104742077Clb=5.3m/s t=-4.3C h=-1.0% p=-1.0hPa 400.811 MHz Type=DFM17 ser=22043986 Radiosonde